Welcome to Des Moines Iowa Weather. I am an independent private personal weather station on the Northwest Side of Des Moines, Iowa. Just East of Windsor Heights and just West of Glendale . This site is also mobile friendly.

There are no active watches, warnings or advisories


Visit our other weather sites:

Historical Data

Weather Station Setup



Weather Underground History page Text

Daily Summary for January 9, 2017 Units:  English    Metric   Both
« Previous Day
Next Day »
Daily Weekly Monthly Yearly Custom
  High: Low: Average:
Temperature: 31.3 °F 13.7 °F 22.5 °F
Dew Point: 27.0 °F 9.7 °F 16.9 °F
Humidity: 88 % 73 % 79 %
Wind Speed: 8.0 mph 0.0 mph 1.5 mph
Wind Gust: 12.0 mph - -
Wind:- - SSW
Pressure: 30.30 in 29.67 in -
Precipitation: 0.00 in    
Historical Graphs
 
 
Tabular Data for January 9, 2017
Time Temperature Dew Point Pressure Wind Wind Speed Wind Gust Humidity Rainfall Rate (Hourly)
00:00 22.1 °F 15.7 °F 30.28 in Calm   1.0 mph 76 % 0.00 in
00:05 22.1 °F 15.7 °F 30.28 in Calm   1.0 mph 76 % 0.00 in
00:09 21.1 °F 15.0 °F 30.28 in Calm     78 % 0.00 in
00:10 21.5 °F 15.1 °F 30.28 in Calm   3.0 mph 76 % 0.00 in
00:15 21.5 °F 15.1 °F 30.28 in Calm   3.0 mph 76 % 0.00 in
00:20 21.5 °F 15.1 °F 30.28 in Calm   3.0 mph 76 % 0.00 in
00:24 20.6 °F 15.0 °F 30.28 in Calm   2.0 mph 79 % 0.00 in
00:25 21.1 °F 15.0 °F 30.28 in Calm     77 % 0.00 in
00:30 21.1 °F 15.0 °F 30.28 in Calm     77 % 0.00 in
00:35 21.1 °F 15.0 °F 30.28 in Calm     77 % 0.00 in
00:39 20.2 °F 15.0 °F 30.27 in Calm     80 % 0.00 in
00:40 20.6 °F 14.9 °F 30.28 in Calm   2.0 mph 78 % 0.00 in
00:45 20.6 °F 14.9 °F 30.28 in Calm   2.0 mph 78 % 0.00 in
00:50 20.6 °F 14.9 °F 30.28 in Calm   2.0 mph 78 % 0.00 in
00:54 19.9 °F 15.0 °F 30.28 in Calm     80 % 0.00 in
00:55 20.2 °F 14.8 °F 30.28 in Calm     79 % 0.00 in
01:00 20.2 °F 14.8 °F 30.28 in Calm     79 % 0.00 in
01:05 20.2 °F 14.8 °F 30.28 in Calm     79 % 0.00 in
01:09 19.5 °F 14.0 °F 30.28 in Calm     80 % 0.00 in
01:10 19.9 °F 14.4 °F 30.28 in Calm     79 % 0.00 in
01:15 19.9 °F 14.4 °F 30.28 in Calm     79 % 0.00 in
01:20 19.9 °F 14.4 °F 30.28 in Calm     79 % 0.00 in
01:24 18.9 °F 14.0 °F 30.28 in Calm     80 % 0.00 in
01:25 19.6 °F 14.2 °F 30.28 in Calm     79 % 0.00 in
01:30 19.6 °F 14.2 °F 30.28 in Calm     79 % 0.00 in
01:35 19.6 °F 14.2 °F 30.28 in Calm     79 % 0.00 in
01:39 18.3 °F 13.0 °F 30.27 in Calm     81 % 0.00 in
01:40 19.0 °F 13.6 °F 30.28 in Calm     79 % 0.00 in
01:45 19.0 °F 13.6 °F 30.28 in Calm     79 % 0.00 in
01:50 19.0 °F 13.6 °F 30.28 in Calm     79 % 0.00 in
01:54 17.7 °F 13.0 °F 30.27 in Calm     82 % 0.00 in
01:55 18.3 °F 13.2 °F 30.27 in Calm     80 % 0.00 in
02:00 18.3 °F 13.2 °F 30.27 in Calm     80 % 0.00 in
02:05 18.3 °F 13.2 °F 30.27 in Calm     80 % 0.00 in
02:09 17.3 °F 13.0 °F 30.27 in Calm     82 % 0.00 in
02:10 17.8 °F 13.0 °F 30.27 in Calm     81 % 0.00 in
02:15 17.8 °F 13.0 °F 30.27 in Calm     81 % 0.00 in
02:20 17.8 °F 13.0 °F 30.27 in Calm     81 % 0.00 in
02:24 16.8 °F 12.0 °F 30.26 in Calm     82 % 0.00 in
02:25 17.3 °F 12.5 °F 30.27 in Calm     81 % 0.00 in
02:30 17.3 °F 12.5 °F 30.27 in Calm     81 % 0.00 in
02:35 17.3 °F 12.5 °F 30.27 in Calm     81 % 0.00 in
02:39 16.5 °F 12.0 °F 30.27 in Calm     83 % 0.00 in
02:40 16.9 °F 12.4 °F 30.27 in Calm     82 % 0.00 in
02:45 16.9 °F 12.4 °F 30.27 in Calm     82 % 0.00 in
02:50 16.9 °F 12.4 °F 30.27 in Calm     82 % 0.00 in
02:54 16.3 °F 13.0 °F 30.27 in Calm     85 % 0.00 in
02:55 16.5 °F 12.2 °F 30.27 in Calm     83 % 0.00 in
03:00 16.5 °F 12.2 °F 30.27 in Calm     83 % 0.00 in
03:05 16.5 °F 12.2 °F 30.27 in Calm     83 % 0.00 in
03:09 16.5 °F 13.0 °F 30.26 in Calm   2.0 mph 86 % 0.00 in
03:10 16.3 °F 12.3 °F 30.27 in Calm     84 % 0.00 in
03:15 16.3 °F 12.3 °F 30.27 in Calm     84 % 0.00 in
03:20 16.3 °F 12.3 °F 30.27 in Calm     84 % 0.00 in
03:24 16.9 °F 14.0 °F 30.27 in Calm   2.0 mph 87 % 0.00 in
03:25 16.5 °F 13.1 °F 30.27 in Calm   2.0 mph 86 % 0.00 in
03:30 16.5 °F 13.1 °F 30.27 in Calm   2.0 mph 86 % 0.00 in
03:35 16.5 °F 13.1 °F 30.27 in Calm   2.0 mph 86 % 0.00 in
03:39 17.1 °F 14.0 °F 30.27 in SW 1.0 mph 2.0 mph 87 % 0.00 in
03:40 16.8 °F 13.4 °F 30.27 in Calm   2.0 mph 86 % 0.00 in
03:45 16.8 °F 13.4 °F 30.27 in Calm   2.0 mph 86 % 0.00 in
03:50 16.8 °F 13.4 °F 30.27 in Calm   2.0 mph 86 % 0.00 in
03:54 17.3 °F 14.0 °F 30.28 in WNW 1.0 mph 4.0 mph 88 % 0.00 in
03:55 17.1 °F 13.9 °F 30.28 in SW 1.0 mph 3.0 mph 87 % 0.00 in
04:00 17.1 °F 13.9 °F 30.28 in SW 1.0 mph 3.0 mph 87 % 0.00 in
04:05 17.1 °F 13.9 °F 30.28 in SW 1.0 mph 3.0 mph 87 % 0.00 in
04:09 17.1 °F 14.0 °F 30.29 in NW 2.0 mph 9.0 mph 87 % 0.00 in
04:10 17.3 °F 13.8 °F 30.28 in WNW 2.0 mph 11.0 mph 86 % 0.00 in
04:15 17.3 °F 13.8 °F 30.28 in WNW 2.0 mph 11.0 mph 86 % 0.00 in
04:20 17.3 °F 13.8 °F 30.28 in WNW 2.0 mph 11.0 mph 86 % 0.00 in
04:24 16.6 °F 13.0 °F 30.28 in Calm   5.0 mph 85 % 0.00 in
04:25 17.2 °F 13.5 °F 30.29 in WNW 3.0 mph 9.0 mph 85 % 0.00 in
04:30 17.2 °F 13.5 °F 30.29 in WNW 3.0 mph 9.0 mph 85 % 0.00 in
04:35 17.2 °F 13.5 °F 30.29 in WNW 3.0 mph 9.0 mph 85 % 0.00 in
04:39 16.0 °F 12.0 °F 30.27 in NW 2.0 mph 6.0 mph 84 % 0.00 in
04:40 16.7 °F 12.7 °F 30.28 in WNW 2.0 mph 10.0 mph 84 % 0.00 in
04:45 16.7 °F 12.7 °F 30.28 in WNW 2.0 mph 10.0 mph 84 % 0.00 in
04:50 16.7 °F 12.7 °F 30.28 in WNW 2.0 mph 10.0 mph 84 % 0.00 in
04:54 15.4 °F 11.0 °F 30.28 in NNW 1.0 mph 6.0 mph 84 % 0.00 in
04:55 16.1 °F 11.9 °F 30.28 in NW 2.0 mph 7.0 mph 83 % 0.00 in
05:00 16.1 °F 11.9 °F 30.28 in NW 2.0 mph 7.0 mph 83 % 0.00 in
05:05 16.1 °F 11.9 °F 30.28 in NW 2.0 mph 7.0 mph 83 % 0.00 in
05:09 15.0 °F 11.0 °F 30.27 in NW 1.0 mph 5.0 mph 83 % 0.00 in
05:10 15.5 °F 11.3 °F 30.28 in NW 2.0 mph 6.0 mph 83 % 0.00 in
05:15 15.5 °F 11.3 °F 30.28 in NW 2.0 mph 6.0 mph 83 % 0.00 in
05:20 15.5 °F 11.3 °F 30.28 in NW 2.0 mph 6.0 mph 83 % 0.00 in
05:24 14.7 °F 11.0 °F 30.28 in Calm   6.0 mph 84 % 0.00 in
05:25 15.1 °F 10.9 °F 30.29 in NNW 2.0 mph 5.0 mph 83 % 0.00 in
05:30 15.1 °F 10.9 °F 30.29 in NNW 2.0 mph 5.0 mph 83 % 0.00 in
05:35 15.1 °F 10.9 °F 30.29 in NNW 2.0 mph 5.0 mph 83 % 0.00 in
05:39 14.4 °F 10.0 °F 30.25 in NW 1.0 mph 3.0 mph 84 % 0.00 in
05:40 14.7 °F 10.5 °F 30.28 in NW 2.0 mph 6.0 mph 83 % 0.00 in
05:45 14.7 °F 10.5 °F 30.28 in NW 2.0 mph 6.0 mph 83 % 0.00 in
05:50 14.7 °F 10.5 °F 30.28 in NW 2.0 mph 6.0 mph 83 % 0.00 in
05:54 14.1 °F 10.0 °F 30.25 in North 1.0 mph 5.0 mph 84 % 0.00 in
05:55 14.4 °F 10.2 °F 30.26 in NW 1.0 mph 3.0 mph 83 % 0.00 in
06:00 14.4 °F 10.2 °F 30.26 in NW 1.0 mph 3.0 mph 83 % 0.00 in
06:05 14.4 °F 10.2 °F 30.26 in NW 1.0 mph 3.0 mph 83 % 0.00 in
06:10 13.8 °F 10.0 °F 30.26 in Calm   3.0 mph 84 % 0.00 in
06:15 14.2 °F 10.0 °F 30.25 in NW 1.0 mph 5.0 mph 83 % 0.00 in
06:20 14.2 °F 10.0 °F 30.25 in NW 1.0 mph 5.0 mph 83 % 0.00 in
06:25 13.7 °F 10.0 °F 30.29 in NNW 1.0 mph 2.0 mph 84 % 0.00 in
06:30 13.9 °F 9.7 °F 30.27 in Calm   3.0 mph 83 % 0.00 in
06:35 13.9 °F 9.7 °F 30.27 in Calm   3.0 mph 83 % 0.00 in
06:39 13.8 °F 10.0 °F 30.30 in NNW 2.0 mph 2.0 mph 85 % 0.00 in
06:40 13.7 °F 9.8 °F 30.30 in NNW 1.0 mph 3.0 mph 84 % 0.00 in
06:45 13.7 °F 9.8 °F 30.30 in NNW 1.0 mph 3.0 mph 84 % 0.00 in
06:50 13.7 °F 9.8 °F 30.30 in NNW 1.0 mph 3.0 mph 84 % 0.00 in
06:55 14.1 °F 10.0 °F 30.28 in NNW 1.0 mph 3.0 mph 85 % 0.00 in
07:00 13.8 °F 9.9 °F 30.30 in NNW 1.0 mph 4.0 mph 84 % 0.00 in
07:05 13.8 °F 9.9 °F 30.30 in NNW 1.0 mph 4.0 mph 84 % 0.00 in
07:09 14.4 °F 11.0 °F 30.28 in Calm   2.0 mph 85 % 0.00 in
07:10 14.0 °F 10.1 °F 30.30 in NNW 1.0 mph 3.0 mph 84 % 0.00 in
07:15 14.0 °F 10.1 °F 30.30 in NNW 1.0 mph 3.0 mph 84 % 0.00 in
07:20 14.0 °F 10.1 °F 30.30 in NNW 1.0 mph 3.0 mph 84 % 0.00 in
07:24 14.6 °F 11.0 °F 30.28 in NNW 2.0 mph 2.0 mph 85 % 0.00 in
07:25 14.3 °F 10.4 °F 30.28 in Calm   2.0 mph 84 % 0.00 in
07:30 14.3 °F 10.4 °F 30.28 in Calm   2.0 mph 84 % 0.00 in
07:35 14.3 °F 10.4 °F 30.28 in Calm   2.0 mph 84 % 0.00 in
07:40 14.9 °F 11.0 °F 30.28 in NNW 1.0 mph 3.0 mph 85 % 0.00 in
07:45 14.6 °F 10.7 °F 30.29 in Calm   2.0 mph 84 % 0.00 in
07:50 14.6 °F 10.7 °F 30.29 in Calm   2.0 mph 84 % 0.00 in
07:55 15.1 °F 11.0 °F 30.27 in Calm   1.0 mph 84 % 0.00 in
08:00 15.1 °F 11.1 °F 30.26 in Calm     84 % 0.00 in
08:05 14.8 °F 10.9 °F 30.27 in Calm   3.0 mph 84 % 0.00 in
08:10 15.2 °F 11.0 °F 30.27 in Calm   3.0 mph 84 % 0.00 in
08:15 15.0 °F 10.8 °F 30.27 in Calm   1.0 mph 83 % 0.00 in
08:20 15.0 °F 10.8 °F 30.27 in Calm   1.0 mph 83 % 0.00 in
08:25 15.4 °F 11.0 °F 30.27 in Calm   3.0 mph 84 % 0.00 in
08:30 15.5 °F 11.3 °F 30.26 in Calm   1.0 mph 83 % 0.00 in
08:35 15.6 °F 11.4 °F 30.25 in Calm     83 % 0.00 in
08:40 15.6 °F 11.0 °F 30.25 in Calm   1.0 mph 83 % 0.00 in
08:45 15.7 °F 11.2 °F 30.26 in Calm   2.0 mph 82 % 0.00 in
08:50 15.8 °F 11.3 °F 30.25 in Calm     82 % 0.00 in
08:55 15.8 °F 12.0 °F 30.24 in NNW 1.0 mph 2.0 mph 83 % 0.00 in
09:02 15.9 °F 11.4 °F 30.25 in Calm   1.0 mph 82 % 0.00 in
09:07 16.1 °F 11.6 °F 30.25 in Calm   1.0 mph 82 % 0.00 in
09:12 16.2 °F 11.7 °F 30.25 in Calm   2.0 mph 82 % 0.00 in
09:17 16.3 °F 11.8 °F 30.25 in Calm     82 % 0.00 in
09:20 16.3 °F 11.8 °F 30.25 in Calm     82 % 0.00 in
09:22 16.3 °F 11.8 °F 30.25 in Calm     82 % 0.00 in
09:25 16.4 °F 11.9 °F 30.25 in Calm     82 % 0.00 in
09:30 16.1 °F 11.6 °F 30.25 in Calm   2.0 mph 82 % 0.00 in
09:35 16.1 °F 11.6 °F 30.25 in Calm   2.0 mph 82 % 0.00 in
09:40 16.8 °F 12.0 °F 30.23 in West 3.0 mph 3.0 mph 82 % 0.00 in
09:45 16.3 °F 11.8 °F 30.24 in Calm   3.0 mph 82 % 0.00 in
09:50 16.3 °F 11.8 °F 30.24 in Calm   3.0 mph 82 % 0.00 in
09:55 17.2 °F 13.0 °F 30.23 in Calm   3.0 mph 82 % 0.00 in
10:00 16.7 °F 11.9 °F 30.23 in Calm   3.0 mph 81 % 0.00 in
10:05 16.7 °F 11.9 °F 30.23 in Calm   3.0 mph 81 % 0.00 in
10:10 17.8 °F 13.0 °F 30.23 in SW 2.0 mph 4.0 mph 82 % 0.00 in
10:15 17.2 °F 12.4 °F 30.24 in West 1.0 mph 3.0 mph 81 % 0.00 in
10:20 17.2 °F 12.4 °F 30.24 in West 1.0 mph 3.0 mph 81 % 0.00 in
10:25 18.1 °F 13.0 °F 30.21 in SW 3.0 mph 4.0 mph 81 % 0.00 in
10:30 17.7 °F 12.6 °F 30.23 in SW 1.0 mph 4.0 mph 80 % 0.00 in
10:35 17.7 °F 12.6 °F 30.23 in SW 1.0 mph 4.0 mph 80 % 0.00 in
10:37 18.4 °F 14.0 °F 30.20 in SW 1.0 mph 5.0 mph 81 % 0.00 in
10:40 17.7 °F 12.6 °F 30.23 in SW 1.0 mph 4.0 mph 80 % 0.00 in
10:45 18.0 °F 12.9 °F 30.21 in SW 1.0 mph 4.0 mph 80 % 0.00 in
10:50 18.0 °F 12.9 °F 30.21 in SW 1.0 mph 4.0 mph 80 % 0.00 in
10:52 18.7 °F 14.0 °F 30.19 in SE 3.0 mph 5.0 mph 80 % 0.00 in
10:55 18.0 °F 12.9 °F 30.21 in SW 1.0 mph 4.0 mph 80 % 0.00 in
11:00 18.4 °F 13.0 °F 30.20 in SW 1.0 mph 5.0 mph 79 % 0.00 in
11:05 18.4 °F 13.0 °F 30.20 in SW 1.0 mph 5.0 mph 79 % 0.00 in
11:07 19.0 °F 14.0 °F 30.17 in SSE 2.0 mph 6.0 mph 80 % 0.00 in
11:10 18.4 °F 13.0 °F 30.20 in SW 1.0 mph 5.0 mph 79 % 0.00 in
11:15 18.7 °F 13.3 °F 30.18 in SE 2.0 mph 9.0 mph 79 % 0.00 in
11:20 18.7 °F 13.3 °F 30.18 in SE 2.0 mph 9.0 mph 79 % 0.00 in
11:22 19.6 °F 14.0 °F 30.15 in East 2.0 mph 7.0 mph 80 % 0.00 in
11:25 18.7 °F 13.3 °F 30.18 in SE 2.0 mph 9.0 mph 79 % 0.00 in
11:30 19.0 °F 13.6 °F 30.17 in SSE 2.0 mph 6.0 mph 79 % 0.00 in
11:35 19.0 °F 13.6 °F 30.17 in SSE 2.0 mph 6.0 mph 79 % 0.00 in
11:37 20.1 °F 15.0 °F 30.13 in SSE 3.0 mph 6.0 mph 79 % 0.00 in
11:40 19.0 °F 13.6 °F 30.17 in SSE 2.0 mph 6.0 mph 79 % 0.00 in
11:45 19.6 °F 13.9 °F 30.15 in South 3.0 mph 8.0 mph 78 % 0.00 in
11:47 20.4 °F 15.0 °F 30.14 in SSE 3.0 mph 7.0 mph 78 % 0.00 in
11:50 19.6 °F 13.9 °F 30.15 in South 3.0 mph 8.0 mph 78 % 0.00 in
11:55 19.6 °F 13.9 °F 30.15 in South 3.0 mph 8.0 mph 78 % 0.00 in
12:00 19.6 °F 13.9 °F 30.15 in South 3.0 mph 8.0 mph 78 % 0.00 in
12:03 20.9 °F 15.0 °F 30.13 in SSE 4.0 mph 5.0 mph 78 % 0.00 in
12:05 20.1 °F 14.4 °F 30.14 in SSE 2.0 mph 8.0 mph 78 % 0.00 in
12:10 20.1 °F 14.4 °F 30.14 in SSE 2.0 mph 8.0 mph 78 % 0.00 in
12:15 20.6 °F 14.6 °F 30.13 in SSE 2.0 mph 7.0 mph 77 % 0.00 in
12:18 21.4 °F 16.0 °F 30.12 in South 2.0 mph 4.0 mph 78 % 0.00 in
12:20 20.6 °F 14.6 °F 30.13 in SSE 2.0 mph 7.0 mph 77 % 0.00 in
12:25 20.6 °F 14.6 °F 30.13 in SSE 2.0 mph 7.0 mph 77 % 0.00 in
12:30 21.1 °F 15.0 °F 30.13 in SSE 2.0 mph 6.0 mph 77 % 0.00 in
12:33 21.9 °F 16.0 °F 30.09 in South 2.0 mph 5.0 mph 77 % 0.00 in
12:35 21.1 °F 15.0 °F 30.13 in SSE 2.0 mph 6.0 mph 77 % 0.00 in
12:40 21.1 °F 15.0 °F 30.13 in SSE 2.0 mph 6.0 mph 77 % 0.00 in
12:45 21.6 °F 15.2 °F 30.10 in South 1.0 mph 5.0 mph 76 % 0.00 in
12:48 22.2 °F 16.0 °F 30.07 in ESE 1.0 mph 7.0 mph 76 % 0.00 in
12:50 21.6 °F 15.2 °F 30.10 in South 1.0 mph 5.0 mph 76 % 0.00 in
12:55 21.6 °F 15.2 °F 30.10 in South 1.0 mph 5.0 mph 76 % 0.00 in
13:00 22.0 °F 15.6 °F 30.08 in South 2.0 mph 8.0 mph 76 % 0.00 in
13:03 22.6 °F 16.0 °F 30.07 in SSE 2.0 mph 5.0 mph 76 % 0.00 in
13:05 22.0 °F 15.6 °F 30.08 in South 2.0 mph 8.0 mph 76 % 0.00 in
13:10 22.0 °F 15.6 °F 30.08 in South 2.0 mph 8.0 mph 76 % 0.00 in
13:15 22.3 °F 15.6 °F 30.08 in ESE 2.0 mph 5.0 mph 75 % 0.00 in
13:18 23.1 °F 16.0 °F 30.06 in SSE 5.0 mph 7.0 mph 75 % 0.00 in
13:20 22.3 °F 15.6 °F 30.08 in ESE 2.0 mph 5.0 mph 75 % 0.00 in
13:25 22.3 °F 15.6 °F 30.08 in ESE 2.0 mph 5.0 mph 75 % 0.00 in
13:30 22.8 °F 15.8 °F 30.07 in SSE 2.0 mph 5.0 mph 74 % 0.00 in
13:33 23.5 °F 17.0 °F 30.05 in ESE 1.0 mph 5.0 mph 75 % 0.00 in
13:35 22.8 °F 15.8 °F 30.07 in SSE 2.0 mph 5.0 mph 74 % 0.00 in
13:40 22.8 °F 15.8 °F 30.07 in SSE 2.0 mph 5.0 mph 74 % 0.00 in
13:45 23.2 °F 16.2 °F 30.05 in South 2.0 mph 7.0 mph 74 % 0.00 in
13:48 24.0 °F 17.0 °F 30.06 in SE 2.0 mph 5.0 mph 75 % 0.00 in
13:50 23.2 °F 16.2 °F 30.05 in South 2.0 mph 7.0 mph 74 % 0.00 in
13:55 23.2 °F 16.2 °F 30.05 in South 2.0 mph 7.0 mph 74 % 0.00 in
14:00 23.7 °F 16.6 °F 30.06 in ESE 2.0 mph 5.0 mph 74 % 0.00 in
14:03 24.4 °F 18.0 °F 30.05 in SSE 4.0 mph 7.0 mph 75 % 0.00 in
14:05 23.7 °F 16.6 °F 30.06 in ESE 2.0 mph 5.0 mph 74 % 0.00 in
14:10 23.7 °F 16.6 °F 30.06 in ESE 2.0 mph 5.0 mph 74 % 0.00 in
14:15 24.1 °F 16.7 °F 30.06 in SSE 2.0 mph 4.0 mph 73 % 0.00 in
14:18 24.9 °F 18.0 °F 30.01 in SSE 1.0 mph 6.0 mph 75 % 0.00 in
14:20 24.1 °F 16.7 °F 30.06 in SSE 2.0 mph 4.0 mph 73 % 0.00 in
14:25 24.1 °F 16.7 °F 30.06 in SSE 2.0 mph 4.0 mph 73 % 0.00 in
14:30 24.5 °F 17.4 °F 30.03 in SSE 2.0 mph 7.0 mph 74 % 0.00 in
14:33 25.3 °F 18.0 °F 29.99 in SSW 1.0 mph 7.0 mph 75 % 0.00 in
14:35 24.5 °F 17.4 °F 30.03 in SSE 2.0 mph 7.0 mph 74 % 0.00 in
14:40 24.5 °F 17.4 °F 30.03 in SSE 2.0 mph 7.0 mph 74 % 0.00 in
14:45 25.0 °F 17.6 °F 30.00 in SSE 3.0 mph 7.0 mph 73 % 0.00 in
14:48 26.0 °F 19.0 °F 29.99 in South 8.0 mph 9.0 mph 75 % 0.00 in
14:50 25.0 °F 17.6 °F 30.00 in SSE 3.0 mph 7.0 mph 73 % 0.00 in
14:55 25.0 °F 17.6 °F 30.00 in SSE 3.0 mph 7.0 mph 73 % 0.00 in
15:00 25.5 °F 18.4 °F 30.00 in SE 2.0 mph 9.0 mph 74 % 0.00 in
15:03 26.6 °F 20.0 °F 29.97 in South 1.0 mph 9.0 mph 75 % 0.00 in
15:05 25.5 °F 18.4 °F 30.00 in SE 2.0 mph 9.0 mph 74 % 0.00 in
15:10 25.5 °F 18.4 °F 30.00 in SE 2.0 mph 9.0 mph 74 % 0.00 in
15:15 26.2 °F 19.1 °F 29.98 in SE 3.0 mph 9.0 mph 74 % 0.00 in
15:18 27.0 °F 20.0 °F 29.95 in NE 3.0 mph 9.0 mph 74 % 0.00 in
15:20 26.2 °F 19.1 °F 29.98 in SE 3.0 mph 9.0 mph 74 % 0.00 in
15:25 26.2 °F 19.1 °F 29.98 in SE 3.0 mph 9.0 mph 74 % 0.00 in
15:30 26.7 °F 19.5 °F 29.96 in South 3.0 mph 9.0 mph 74 % 0.00 in
15:33 27.1 °F 20.0 °F 29.94 in SSE 2.0 mph 8.0 mph 74 % 0.00 in
15:35 26.7 °F 19.5 °F 29.96 in South 3.0 mph 9.0 mph 74 % 0.00 in
15:40 26.7 °F 19.5 °F 29.96 in South 3.0 mph 9.0 mph 74 % 0.00 in
15:45 27.1 °F 19.6 °F 29.95 in SSE 3.0 mph 9.0 mph 73 % 0.00 in
15:48 27.5 °F 21.0 °F 29.92 in East 1.0 mph 7.0 mph 75 % 0.00 in
15:50 27.1 °F 19.6 °F 29.95 in SSE 3.0 mph 9.0 mph 73 % 0.00 in
15:55 27.1 °F 19.6 °F 29.95 in SSE 3.0 mph 9.0 mph 73 % 0.00 in
16:00 27.2 °F 20.0 °F 29.92 in SSE 3.0 mph 8.0 mph 74 % 0.00 in
16:03 27.7 °F 21.0 °F 29.90 in ESE 2.0 mph 8.0 mph 75 % 0.00 in
16:05 27.2 °F 20.0 °F 29.92 in SSE 3.0 mph 8.0 mph 74 % 0.00 in
16:10 27.2 °F 20.0 °F 29.92 in SSE 3.0 mph 8.0 mph 74 % 0.00 in
16:15 27.5 °F 20.3 °F 29.91 in East 2.0 mph 7.0 mph 74 % 0.00 in
16:18 28.0 °F 21.0 °F 29.91 in ESE 6.0 mph 8.0 mph 75 % 0.00 in
16:20 27.5 °F 20.3 °F 29.91 in East 2.0 mph 7.0 mph 74 % 0.00 in
16:25 27.5 °F 20.3 °F 29.91 in East 2.0 mph 7.0 mph 74 % 0.00 in
16:30 27.8 °F 20.6 °F 29.90 in SSE 3.0 mph 10.0 mph 74 % 0.00 in
16:33 28.3 °F 21.0 °F 29.90 in SW 3.0 mph 10.0 mph 75 % 0.00 in
16:35 27.8 °F 20.6 °F 29.90 in SSE 3.0 mph 10.0 mph 74 % 0.00 in
16:40 27.8 °F 20.6 °F 29.90 in SSE 3.0 mph 10.0 mph 74 % 0.00 in
16:45 28.1 °F 20.9 °F 29.91 in SSE 4.0 mph 12.0 mph 74 % 0.00 in
16:48 28.5 °F 22.0 °F 29.89 in SSE 3.0 mph 8.0 mph 75 % 0.00 in
16:50 28.1 °F 20.9 °F 29.91 in SSE 4.0 mph 12.0 mph 74 % 0.00 in
16:55 28.1 °F 20.9 °F 29.91 in SSE 4.0 mph 12.0 mph 74 % 0.00 in
17:00 28.3 °F 21.1 °F 29.90 in South 4.0 mph 10.0 mph 74 % 0.00 in
17:03 28.8 °F 22.0 °F 29.90 in ESE 3.0 mph 9.0 mph 75 % 0.00 in
17:05 28.3 °F 21.1 °F 29.90 in South 4.0 mph 10.0 mph 74 % 0.00 in
17:10 28.3 °F 21.1 °F 29.90 in South 4.0 mph 10.0 mph 74 % 0.00 in
17:15 28.5 °F 21.3 °F 29.91 in SSE 3.0 mph 10.0 mph 74 % 0.00 in
17:18 29.1 °F 22.0 °F 29.88 in SSE 4.0 mph 8.0 mph 75 % 0.00 in
17:20 28.5 °F 21.3 °F 29.91 in SSE 3.0 mph 10.0 mph 74 % 0.00 in
17:25 28.5 °F 21.3 °F 29.91 in SSE 3.0 mph 10.0 mph 74 % 0.00 in
17:30 28.8 °F 21.6 °F 29.89 in South 4.0 mph 9.0 mph 74 % 0.00 in
17:35 28.8 °F 21.6 °F 29.89 in South 4.0 mph 9.0 mph 74 % 0.00 in
17:36 29.3 °F 22.0 °F 29.86 in SE 3.0 mph 9.0 mph 75 % 0.00 in
17:40 28.8 °F 21.6 °F 29.89 in South 4.0 mph 9.0 mph 74 % 0.00 in
17:45 29.1 °F 21.9 °F 29.87 in SSE 3.0 mph 9.0 mph 74 % 0.00 in
17:49 29.5 °F 22.0 °F 29.86 in SE 2.0 mph 8.0 mph 74 % 0.00 in
17:50 29.1 °F 21.9 °F 29.87 in SSE 3.0 mph 9.0 mph 74 % 0.00 in
17:55 29.1 °F 21.9 °F 29.87 in SSE 3.0 mph 9.0 mph 74 % 0.00 in
18:00 29.3 °F 22.1 °F 29.87 in SE 3.0 mph 9.0 mph 74 % 0.00 in
18:04 29.7 °F 22.0 °F 29.86 in SSE 2.0 mph 7.0 mph 74 % 0.00 in
18:05 29.3 °F 22.1 °F 29.87 in SE 3.0 mph 9.0 mph 74 % 0.00 in
18:10 29.3 °F 22.1 °F 29.87 in SE 3.0 mph 9.0 mph 74 % 0.00 in
18:15 29.5 °F 21.9 °F 29.86 in SSE 2.0 mph 6.0 mph 73 % 0.00 in
18:19 29.9 °F 23.0 °F 29.85 in South 3.0 mph 7.0 mph 74 % 0.00 in
18:20 29.5 °F 21.9 °F 29.86 in SSE 2.0 mph 6.0 mph 73 % 0.00 in
18:25 29.5 °F 21.9 °F 29.86 in SSE 2.0 mph 6.0 mph 73 % 0.00 in
18:30 29.7 °F 22.1 °F 29.86 in SSE 2.0 mph 7.0 mph 73 % 0.00 in
18:34 29.9 °F 23.0 °F 29.84 in SSE 2.0 mph 9.0 mph 74 % 0.00 in
18:35 29.7 °F 22.1 °F 29.86 in SSE 2.0 mph 7.0 mph 73 % 0.00 in
18:40 29.7 °F 22.1 °F 29.86 in SSE 2.0 mph 7.0 mph 73 % 0.00 in
18:45 29.9 °F 22.3 °F 29.84 in South 3.0 mph 10.0 mph 73 % 0.00 in
18:49 30.0 °F 23.0 °F 29.83 in South 2.0 mph 7.0 mph 74 % 0.00 in
18:50 29.9 °F 22.3 °F 29.84 in South 3.0 mph 10.0 mph 73 % 0.00 in
18:55 29.9 °F 22.3 °F 29.84 in South 3.0 mph 10.0 mph 73 % 0.00 in
19:00 29.9 °F 22.3 °F 29.83 in SSE 2.0 mph 8.0 mph 73 % 0.00 in
19:04 30.2 °F 23.0 °F 29.83 in ESE 2.0 mph 7.0 mph 74 % 0.00 in
19:05 29.9 °F 22.3 °F 29.83 in SSE 2.0 mph 8.0 mph 73 % 0.00 in
19:10 29.9 °F 22.3 °F 29.83 in SSE 2.0 mph 8.0 mph 73 % 0.00 in
19:15 30.1 °F 22.5 °F 29.83 in South 3.0 mph 8.0 mph 73 % 0.00 in
19:19 30.4 °F 23.0 °F 29.83 in SE 2.0 mph 7.0 mph 74 % 0.00 in
19:20 30.1 °F 22.5 °F 29.83 in South 3.0 mph 8.0 mph 73 % 0.00 in
19:25 30.1 °F 22.5 °F 29.83 in South 3.0 mph 8.0 mph 73 % 0.00 in
19:30 30.3 °F 22.7 °F 29.83 in SSE 2.0 mph 8.0 mph 73 % 0.00 in
19:34 30.3 °F 23.0 °F 29.83 in South 2.0 mph 8.0 mph 74 % 0.00 in
19:35 30.3 °F 22.7 °F 29.83 in SSE 2.0 mph 8.0 mph 73 % 0.00 in
19:40 30.3 °F 22.7 °F 29.83 in SSE 2.0 mph 8.0 mph 73 % 0.00 in
19:45 30.4 °F 22.8 °F 29.83 in South 2.0 mph 9.0 mph 73 % 0.00 in
19:49 30.4 °F 23.0 °F 29.82 in SSE 3.0 mph 5.0 mph 75 % 0.00 in
19:50 30.4 °F 22.8 °F 29.83 in South 2.0 mph 9.0 mph 73 % 0.00 in
19:55 30.4 °F 22.8 °F 29.83 in South 2.0 mph 9.0 mph 73 % 0.00 in
20:00 30.3 °F 23.0 °F 29.83 in SSE 2.0 mph 6.0 mph 74 % 0.00 in
20:04 30.2 °F 23.0 °F 29.82 in SE 1.0 mph 4.0 mph 75 % 0.00 in
20:05 30.3 °F 23.0 °F 29.83 in SSE 2.0 mph 6.0 mph 74 % 0.00 in
20:10 30.3 °F 23.0 °F 29.83 in SSE 2.0 mph 6.0 mph 74 % 0.00 in
20:15 30.3 °F 23.0 °F 29.82 in SE 1.0 mph 4.0 mph 74 % 0.00 in
20:19 30.2 °F 24.0 °F 29.81 in South 3.0 mph 7.0 mph 76 % 0.00 in
20:20 30.3 °F 23.0 °F 29.82 in SE 1.0 mph 4.0 mph 74 % 0.00 in
20:25 30.3 °F 23.0 °F 29.82 in SE 1.0 mph 4.0 mph 74 % 0.00 in
20:30 30.1 °F 23.1 °F 29.82 in SE 1.0 mph 4.0 mph 75 % 0.00 in
20:34 30.2 °F 24.0 °F 29.79 in South 1.0 mph 6.0 mph 76 % 0.00 in
20:35 30.1 °F 23.1 °F 29.82 in SE 1.0 mph 4.0 mph 75 % 0.00 in
20:40 30.1 °F 23.1 °F 29.82 in SE 1.0 mph 4.0 mph 75 % 0.00 in
20:45 30.2 °F 23.2 °F 29.80 in SSE 2.0 mph 7.0 mph 75 % 0.00 in
20:49 30.2 °F 24.0 °F 29.77 in South 1.0 mph 6.0 mph 77 % 0.00 in
20:50 30.2 °F 23.2 °F 29.80 in SSE 2.0 mph 7.0 mph 75 % 0.00 in
20:55 30.2 °F 23.2 °F 29.80 in SSE 2.0 mph 7.0 mph 75 % 0.00 in
21:00 30.2 °F 23.6 °F 29.77 in South 2.0 mph 7.0 mph 76 % 0.00 in
21:04 30.2 °F 24.0 °F 29.76 in SSE 2.0 mph 5.0 mph 77 % 0.00 in
21:05 30.2 °F 23.6 °F 29.77 in South 2.0 mph 7.0 mph 76 % 0.00 in
21:10 30.2 °F 23.6 °F 29.77 in South 2.0 mph 7.0 mph 76 % 0.00 in
21:15 30.2 °F 23.6 °F 29.77 in SSE 2.0 mph 9.0 mph 76 % 0.00 in
21:19 30.3 °F 24.0 °F 29.77 in SSE 4.0 mph 5.0 mph 78 % 0.00 in
21:20 30.2 °F 23.6 °F 29.77 in SSE 2.0 mph 9.0 mph 76 % 0.00 in
21:25 30.2 °F 23.6 °F 29.77 in SSE 2.0 mph 9.0 mph 76 % 0.00 in
21:30 30.2 °F 23.9 °F 29.77 in SSE 2.0 mph 5.0 mph 77 % 0.00 in
21:34 30.4 °F 24.0 °F 29.75 in South 2.0 mph 7.0 mph 78 % 0.00 in
21:35 30.2 °F 23.9 °F 29.77 in SSE 2.0 mph 5.0 mph 77 % 0.00 in
21:40 30.2 °F 23.9 °F 29.77 in SSE 2.0 mph 5.0 mph 77 % 0.00 in
21:45 30.4 °F 24.1 °F 29.76 in South 2.0 mph 7.0 mph 77 % 0.00 in
21:49 30.4 °F 24.0 °F 29.75 in South 2.0 mph 3.0 mph 78 % 0.00 in
21:50 30.4 °F 24.1 °F 29.76 in South 2.0 mph 7.0 mph 77 % 0.00 in
21:55 30.4 °F 24.1 °F 29.76 in South 2.0 mph 7.0 mph 77 % 0.00 in
22:00 30.4 °F 24.1 °F 29.76 in South 1.0 mph 3.0 mph 77 % 0.00 in
22:04 30.2 °F 24.0 °F 29.74 in South 1.0 mph 2.0 mph 79 % 0.00 in
22:05 30.4 °F 24.1 °F 29.76 in South 1.0 mph 3.0 mph 77 % 0.00 in
22:15 30.3 °F 24.3 °F 29.74 in South 1.0 mph 3.0 mph 78 % 0.00 in
22:19 30.0 °F 25.0 °F 29.73 in Calm   2.0 mph 80 % 0.00 in
22:20 30.3 °F 24.3 °F 29.74 in South 1.0 mph 3.0 mph 78 % 0.00 in
22:25 30.3 °F 24.3 °F 29.74 in South 1.0 mph 3.0 mph 78 % 0.00 in
22:30 30.2 °F 24.2 °F 29.74 in Calm   2.0 mph 78 % 0.00 in
22:34 30.0 °F 25.0 °F 29.73 in Calm   3.0 mph 81 % 0.00 in
22:35 30.2 °F 24.2 °F 29.74 in Calm   2.0 mph 78 % 0.00 in
22:40 30.2 °F 24.2 °F 29.74 in Calm   2.0 mph 78 % 0.00 in
22:45 30.0 °F 24.6 °F 29.73 in South 1.0 mph 3.0 mph 80 % 0.00 in
22:49 30.2 °F 25.0 °F 29.72 in South 2.0 mph 3.0 mph 82 % 0.00 in
22:50 30.0 °F 24.6 °F 29.73 in South 1.0 mph 3.0 mph 80 % 0.00 in
22:55 30.0 °F 24.6 °F 29.73 in South 1.0 mph 3.0 mph 80 % 0.00 in
23:00 30.0 °F 24.9 °F 29.73 in South 1.0 mph 5.0 mph 81 % 0.00 in
23:04 30.4 °F 26.0 °F 29.70 in Calm   3.0 mph 82 % 0.00 in
23:05 30.0 °F 24.9 °F 29.73 in South 1.0 mph 5.0 mph 81 % 0.00 in
23:10 30.0 °F 24.9 °F 29.73 in South 1.0 mph 5.0 mph 81 % 0.00 in
23:15 30.2 °F 25.1 °F 29.71 in South 1.0 mph 4.0 mph 81 % 0.00 in
23:19 30.7 °F 26.0 °F 29.69 in South 1.0 mph 3.0 mph 83 % 0.00 in
23:20 30.2 °F 25.1 °F 29.71 in South 1.0 mph 4.0 mph 81 % 0.00 in
23:25 30.2 °F 25.1 °F 29.71 in South 1.0 mph 4.0 mph 81 % 0.00 in
23:30 30.4 °F 25.6 °F 29.71 in South 1.0 mph 3.0 mph 82 % 0.00 in
23:34 31.0 °F 27.0 °F 29.69 in SSE 1.0 mph 5.0 mph 84 % 0.00 in
23:35 30.4 °F 25.6 °F 29.71 in South 1.0 mph 3.0 mph 82 % 0.00 in
23:40 30.4 °F 25.6 °F 29.71 in South 1.0 mph 3.0 mph 82 % 0.00 in
23:45 30.7 °F 25.9 °F 29.70 in South 1.0 mph 4.0 mph 82 % 0.00 in
23:49 31.3 °F 27.0 °F 29.67 in SSE 1.0 mph 3.0 mph 84 % 0.00 in
23:50 30.7 °F 25.9 °F 29.70 in South 1.0 mph 4.0 mph 82 % 0.00 in
23:55 30.7 °F 25.9 °F 29.70 in South 1.0 mph 4.0 mph 82 % 0.00 in
Des Moines Weather and Climate
Compliments of Weather Underground - 4.75 mb

Script developed by  Jim McMurry - jmcmurry@mwt.net Adapted for the template by  Wim van der Kuil - Leuven-Template.eu

You find our weather info also at:

Weather Underground

Equipment we use:

Weather-station
Davis VP2 Plus

Weather-program
Davis Weatherlink.Com

Weather-server
iMac (Retina 4K, 21.5-inch, Late 2015)

Provider
Hostmonster.com

Davis VP2 Plus

Davis Weatherlink.Com

iMac (Retina 4K, 21.5-inch, Late 2015)

Hostmonster.com